sensor_id;sensor_type;location;lat;lon;timestamp;temperature;humidity
10245;DHT22;5167;52.164;10.530;2023-09-08T00:02:08;21.40;5.00
10245;DHT22;5167;52.164;10.530;2023-09-08T00:04:35;21.40;5.00
10245;DHT22;5167;52.164;10.530;2023-09-08T00:07:01;21.30;5.00
10245;DHT22;5167;52.164;10.530;2023-09-08T00:09:26;21.30;5.00
10245;DHT22;5167;52.164;10.530;2023-09-08T00:11:52;21.40;5.00
10245;DHT22;5167;52.164;10.530;2023-09-08T00:14:19;21.30;5.00
10245;DHT22;5167;52.164;10.530;2023-09-08T00:16:45;21.20;5.00
10245;DHT22;5167;52.164;10.530;2023-09-08T00:19:10;21.20;5.00
10245;DHT22;5167;52.164;10.530;2023-09-08T00:21:36;21.10;5.00
10245;DHT22;5167;52.164;10.530;2023-09-08T00:24:02;21.10;5.00
10245;DHT22;5167;52.164;10.530;2023-09-08T00:26:29;21.10;5.00
10245;DHT22;5167;52.164;10.530;2023-09-08T00:28:55;21.10;5.00
10245;DHT22;5167;52.164;10.530;2023-09-08T00:31:20;21.10;5.00
10245;DHT22;5167;52.164;10.530;2023-09-08T00:33:46;21.10;5.00
10245;DHT22;5167;52.164;10.530;2023-09-08T00:36:11;21.10;5.00
10245;DHT22;5167;52.164;10.530;2023-09-08T00:38:37;21.00;5.00
10245;DHT22;5167;52.164;10.530;2023-09-08T00:41:04;21.00;5.00
10245;DHT22;5167;52.164;10.530;2023-09-08T00:43:30;21.10;5.00
10245;DHT22;5167;52.164;10.530;2023-09-08T00:45:56;21.10;5.00
10245;DHT22;5167;52.164;10.530;2023-09-08T00:48:24;21.00;5.00
10245;DHT22;5167;52.164;10.530;2023-09-08T00:50:49;21.10;5.00
10245;DHT22;5167;52.164;10.530;2023-09-08T00:53:15;21.10;5.00
10245;DHT22;5167;52.164;10.530;2023-09-08T00:55:41;21.10;5.00
10245;DHT22;5167;52.164;10.530;2023-09-08T00:58:06;21.00;5.00
10245;DHT22;5167;52.164;10.530;2023-09-08T01:00:32;21.10;5.00
10245;DHT22;5167;52.164;10.530;2023-09-08T01:02:58;21.10;5.00
10245;DHT22;5167;52.164;10.530;2023-09-08T01:05:23;21.00;5.00
10245;DHT22;5167;52.164;10.530;2023-09-08T01:07:50;21.00;5.00
10245;DHT22;5167;52.164;10.530;2023-09-08T01:10:16;21.00;5.00
10245;DHT22;5167;52.164;10.530;2023-09-08T01:12:42;21.00;5.00
10245;DHT22;5167;52.164;10.530;2023-09-08T01:15:08;21.00;5.00
10245;DHT22;5167;52.164;10.530;2023-09-08T01:17:34;21.00;5.00
10245;DHT22;5167;52.164;10.530;2023-09-08T01:20:06;21.00;5.00
10245;DHT22;5167;52.164;10.530;2023-09-08T01:22:40;21.00;5.00
10245;DHT22;5167;52.164;10.530;2023-09-08T01:25:23;21.00;5.00
10245;DHT22;5167;52.164;10.530;2023-09-08T01:27:54;21.00;5.00
10245;DHT22;5167;52.164;10.530;2023-09-08T01:30:23;21.00;5.00
10245;DHT22;5167;52.164;10.530;2023-09-08T01:32:50;20.90;5.00
10245;DHT22;5167;52.164;10.530;2023-09-08T01:35:16;20.80;5.00
10245;DHT22;5167;52.164;10.530;2023-09-08T01:37:46;20.80;5.00
10245;DHT22;5167;52.164;10.530;2023-09-08T01:40:12;20.80;5.00
10245;DHT22;5167;52.164;10.530;2023-09-08T01:42:38;20.80;5.00
10245;DHT22;5167;52.164;10.530;2023-09-08T01:45:04;20.70;5.00
10245;DHT22;5167;52.164;10.530;2023-09-08T01:47:30;20.70;5.00
10245;DHT22;5167;52.164;10.530;2023-09-08T01:49:56;20.70;5.00
10245;DHT22;5167;52.164;10.530;2023-09-08T01:52:21;20.70;5.00
10245;DHT22;5167;52.164;10.530;2023-09-08T01:54:47;20.70;5.00
10245;DHT22;5167;52.164;10.530;2023-09-08T01:57:13;20.60;5.00
10245;DHT22;5167;52.164;10.530;2023-09-08T01:59:38;20.60;5.00
10245;DHT22;5167;52.164;10.530;2023-09-08T02:02:04;20.60;5.00
10245;DHT22;5167;52.164;10.530;2023-09-08T02:04:29;20.50;5.00
10245;DHT22;5167;52.164;10.530;2023-09-08T02:06:55;20.50;5.00
10245;DHT22;5167;52.164;10.530;2023-09-08T02:09:22;20.40;5.00
10245;DHT22;5167;52.164;10.530;2023-09-08T02:11:47;20.40;5.00
10245;DHT22;5167;52.164;10.530;2023-09-08T02:14:13;20.40;5.00
10245;DHT22;5167;52.164;10.530;2023-09-08T02:16:38;20.30;5.00
10245;DHT22;5167;52.164;10.530;2023-09-08T02:19:05;20.30;5.00
10245;DHT22;5167;52.164;10.530;2023-09-08T02:21:30;20.40;5.00
10245;DHT22;5167;52.164;10.530;2023-09-08T02:23:56;20.30;5.00
10245;DHT22;5167;52.164;10.530;2023-09-08T02:26:21;20.30;5.00
10245;DHT22;5167;52.164;10.530;2023-09-08T02:28:47;20.30;5.00
10245;DHT22;5167;52.164;10.530;2023-09-08T02:31:12;20.30;5.00
10245;DHT22;5167;52.164;10.530;2023-09-08T02:33:38;20.30;5.00
10245;DHT22;5167;52.164;10.530;2023-09-08T02:36:06;20.20;5.00
10245;DHT22;5167;52.164;10.530;2023-09-08T02:38:32;20.20;5.00
10245;DHT22;5167;52.164;10.530;2023-09-08T02:40:58;20.20;5.00
10245;DHT22;5167;52.164;10.530;2023-09-08T02:43:23;20.20;5.00
10245;DHT22;5167;52.164;10.530;2023-09-08T02:45:49;20.20;5.10
10245;DHT22;5167;52.164;10.530;2023-09-08T02:48:15;20.10;5.00
10245;DHT22;5167;52.164;10.530;2023-09-08T02:50:42;20.10;5.60
10245;DHT22;5167;52.164;10.530;2023-09-08T02:53:07;20.00;5.60
10245;DHT22;5167;52.164;10.530;2023-09-08T02:55:33;20.00;5.20
10245;DHT22;5167;52.164;10.530;2023-09-08T02:57:58;19.90;5.30
10245;DHT22;5167;52.164;10.530;2023-09-08T03:00:24;19.90;5.70
10245;DHT22;5167;52.164;10.530;2023-09-08T03:02:50;19.90;5.00
10245;DHT22;5167;52.164;10.530;2023-09-08T03:05:15;19.80;5.90
10245;DHT22;5167;52.164;10.530;2023-09-08T03:07:41;19.80;6.30
10245;DHT22;5167;52.164;10.530;2023-09-08T03:10:06;19.80;6.60
10245;DHT22;5167;52.164;10.530;2023-09-08T03:12:32;19.80;6.50
10245;DHT22;5167;52.164;10.530;2023-09-08T03:14:58;19.70;7.00
10245;DHT22;5167;52.164;10.530;2023-09-08T03:17:23;19.70;6.00
10245;DHT22;5167;52.164;10.530;2023-09-08T03:19:49;19.80;5.80
10245;DHT22;5167;52.164;10.530;2023-09-08T03:22:14;19.70;5.90
10245;DHT22;5167;52.164;10.530;2023-09-08T03:24:39;19.60;6.10
10245;DHT22;5167;52.164;10.530;2023-09-08T03:27:05;19.70;6.40
10245;DHT22;5167;52.164;10.530;2023-09-08T03:29:30;19.60;6.00
10245;DHT22;5167;52.164;10.530;2023-09-08T03:31:56;19.60;9.60
10245;DHT22;5167;52.164;10.530;2023-09-08T03:34:21;19.60;7.60
10245;DHT22;5167;52.164;10.530;2023-09-08T03:36:48;19.50;8.10
10245;DHT22;5167;52.164;10.530;2023-09-08T03:39:14;19.50;6.60
10245;DHT22;5167;52.164;10.530;2023-09-08T03:41:39;19.50;7.40
10245;DHT22;5167;52.164;10.530;2023-09-08T03:44:05;19.50;6.50
10245;DHT22;5167;52.164;10.530;2023-09-08T03:46:30;19.40;6.50
10245;DHT22;5167;52.164;10.530;2023-09-08T03:48:56;19.40;7.10
10245;DHT22;5167;52.164;10.530;2023-09-08T03:51:26;19.40;6.90
10245;DHT22;5167;52.164;10.530;2023-09-08T03:53:52;19.40;6.80
10245;DHT22;5167;52.164;10.530;2023-09-08T03:56:18;19.40;7.50
10245;DHT22;5167;52.164;10.530;2023-09-08T03:58:45;19.40;7.50
10245;DHT22;5167;52.164;10.530;2023-09-08T04:01:11;19.40;7.20
10245;DHT22;5167;52.164;10.530;2023-09-08T04:03:36;19.40;6.10
10245;DHT22;5167;52.164;10.530;2023-09-08T04:06:02;19.30;7.00
10245;DHT22;5167;52.164;10.530;2023-09-08T04:08:27;19.30;7.20
10245;DHT22;5167;52.164;10.530;2023-09-08T04:10:53;19.30;7.70
10245;DHT22;5167;52.164;10.530;2023-09-08T04:13:18;19.30;7.90
10245;DHT22;5167;52.164;10.530;2023-09-08T04:15:44;19.20;7.80
10245;DHT22;5167;52.164;10.530;2023-09-08T04:18:09;19.20;8.10
10245;DHT22;5167;52.164;10.530;2023-09-08T04:20:35;19.20;8.20
10245;DHT22;5167;52.164;10.530;2023-09-08T04:23:00;19.10;8.60
10245;DHT22;5167;52.164;10.530;2023-09-08T04:25:26;19.10;8.30
10245;DHT22;5167;52.164;10.530;2023-09-08T04:27:51;19.20;7.50
10245;DHT22;5167;52.164;10.530;2023-09-08T04:30:17;19.20;7.70
10245;DHT22;5167;52.164;10.530;2023-09-08T04:32:46;19.10;7.70
10245;DHT22;5167;52.164;10.530;2023-09-08T04:35:12;19.10;9.20
10245;DHT22;5167;52.164;10.530;2023-09-08T04:37:37;19.10;9.10
10245;DHT22;5167;52.164;10.530;2023-09-08T04:40:05;19.10;9.40
10245;DHT22;5167;52.164;10.530;2023-09-08T04:42:30;19.10;9.40
10245;DHT22;5167;52.164;10.530;2023-09-08T04:44:56;19.10;9.30
10245;DHT22;5167;52.164;10.530;2023-09-08T04:47:22;19.00;9.50
10245;DHT22;5167;52.164;10.530;2023-09-08T04:49:47;19.10;9.90
10245;DHT22;5167;52.164;10.530;2023-09-08T04:52:13;19.00;12.60
10245;DHT22;5167;52.164;10.530;2023-09-08T04:54:39;19.00;10.10
10245;DHT22;5167;52.164;10.530;2023-09-08T04:57:04;19.00;10.30
10245;DHT22;5167;52.164;10.530;2023-09-08T04:59:30;19.00;10.20
10245;DHT22;5167;52.164;10.530;2023-09-08T05:01:55;19.00;10.30
10245;DHT22;5167;52.164;10.530;2023-09-08T05:04:21;19.00;10.30
10245;DHT22;5167;52.164;10.530;2023-09-08T05:06:46;19.00;10.10
10245;DHT22;5167;52.164;10.530;2023-09-08T05:09:12;19.00;10.40
10245;DHT22;5167;52.164;10.530;2023-09-08T05:11:38;19.00;10.30
10245;DHT22;5167;52.164;10.530;2023-09-08T05:14:04;18.90;10.30
10245;DHT22;5167;52.164;10.530;2023-09-08T05:16:30;18.90;10.30
10245;DHT22;5167;52.164;10.530;2023-09-08T05:19:11;18.90;11.70
10245;DHT22;5167;52.164;10.530;2023-09-08T05:21:37;18.90;11.10
10245;DHT22;5167;52.164;10.530;2023-09-08T05:24:03;18.90;11.90
10245;DHT22;5167;52.164;10.530;2023-09-08T05:26:28;18.90;12.30
10245;DHT22;5167;52.164;10.530;2023-09-08T05:28:54;18.90;12.00
10245;DHT22;5167;52.164;10.530;2023-09-08T05:31:19;19.00;11.60
10245;DHT22;5167;52.164;10.530;2023-09-08T05:33:45;18.90;11.60
10245;DHT22;5167;52.164;10.530;2023-09-08T05:36:11;18.90;11.70
10245;DHT22;5167;52.164;10.530;2023-09-08T05:38:36;18.90;12.50
10245;DHT22;5167;52.164;10.530;2023-09-08T05:41:02;18.90;10.90
10245;DHT22;5167;52.164;10.530;2023-09-08T05:43:28;18.90;12.10
10245;DHT22;5167;52.164;10.530;2023-09-08T05:45:53;18.80;10.60
10245;DHT22;5167;52.164;10.530;2023-09-08T05:48:19;18.80;11.10
10245;DHT22;5167;52.164;10.530;2023-09-08T05:50:44;18.80;10.70
10245;DHT22;5167;52.164;10.530;2023-09-08T05:53:10;18.80;11.30
10245;DHT22;5167;52.164;10.530;2023-09-08T05:55:36;18.80;11.80
10245;DHT22;5167;52.164;10.530;2023-09-08T05:58:01;18.80;12.00
10245;DHT22;5167;52.164;10.530;2023-09-08T06:00:27;18.80;12.70
10245;DHT22;5167;52.164;10.530;2023-09-08T06:02:53;18.80;13.20
10245;DHT22;5167;52.164;10.530;2023-09-08T06:05:18;18.80;13.10
10245;DHT22;5167;52.164;10.530;2023-09-08T06:07:44;18.90;13.40
10245;DHT22;5167;52.164;10.530;2023-09-08T06:10:10;18.90;13.20
10245;DHT22;5167;52.164;10.530;2023-09-08T06:12:35;19.00;13.40
10245;DHT22;5167;52.164;10.530;2023-09-08T06:15:04;19.00;13.70
10245;DHT22;5167;52.164;10.530;2023-09-08T06:17:30;19.10;13.70
10245;DHT22;5167;52.164;10.530;2023-09-08T06:19:55;19.10;14.20
10245;DHT22;5167;52.164;10.530;2023-09-08T06:22:22;19.20;13.90
10245;DHT22;5167;52.164;10.530;2023-09-08T06:24:47;19.30;13.70
10245;DHT22;5167;52.164;10.530;2023-09-08T06:27:14;19.40;12.40
10245;DHT22;5167;52.164;10.530;2023-09-08T06:29:40;19.50;12.30
10245;DHT22;5167;52.164;10.530;2023-09-08T06:32:08;19.50;11.80
10245;DHT22;5167;52.164;10.530;2023-09-08T06:34:34;19.50;10.60
10245;DHT22;5167;52.164;10.530;2023-09-08T06:37:01;19.60;12.50
10245;DHT22;5167;52.164;10.530;2023-09-08T06:39:27;19.60;12.10
10245;DHT22;5167;52.164;10.530;2023-09-08T06:41:53;19.60;12.10
10245;DHT22;5167;52.164;10.530;2023-09-08T06:44:22;19.70;13.70
10245;DHT22;5167;52.164;10.530;2023-09-08T06:46:48;19.80;12.30
10245;DHT22;5167;52.164;10.530;2023-09-08T06:49:13;19.80;12.20
10245;DHT22;5167;52.164;10.530;2023-09-08T06:51:39;19.90;12.40
10245;DHT22;5167;52.164;10.530;2023-09-08T06:54:05;20.00;12.50
10245;DHT22;5167;52.164;10.530;2023-09-08T06:56:31;20.10;12.30
10245;DHT22;5167;52.164;10.530;2023-09-08T06:58:56;20.30;11.10
10245;DHT22;5167;52.164;10.530;2023-09-08T07:01:23;20.60;11.60
10245;DHT22;5167;52.164;10.530;2023-09-08T07:03:49;20.80;11.60
10245;DHT22;5167;52.164;10.530;2023-09-08T07:06:15;20.90;10.60
10245;DHT22;5167;52.164;10.530;2023-09-08T07:08:40;21.20;9.40
10245;DHT22;5167;52.164;10.530;2023-09-08T07:11:06;21.30;8.30
10245;DHT22;5167;52.164;10.530;2023-09-08T07:13:31;21.50;9.50
10245;DHT22;5167;52.164;10.530;2023-09-08T07:15:57;21.70;8.10
10245;DHT22;5167;52.164;10.530;2023-09-08T07:18:22;21.90;7.20
10245;DHT22;5167;52.164;10.530;2023-09-08T07:20:48;22.10;5.00
10245;DHT22;5167;52.164;10.530;2023-09-08T07:23:15;22.20;5.90
10245;DHT22;5167;52.164;10.530;2023-09-08T07:25:45;22.30;5.60
10245;DHT22;5167;52.164;10.530;2023-09-08T07:28:11;22.50;5.00
10245;DHT22;5167;52.164;10.530;2023-09-08T07:30:36;22.60;5.00
10245;DHT22;5167;52.164;10.530;2023-09-08T07:33:02;22.80;5.00
10245;DHT22;5167;52.164;10.530;2023-09-08T07:35:29;22.90;5.00
10245;DHT22;5167;52.164;10.530;2023-09-08T07:37:55;23.00;5.00
10245;DHT22;5167;52.164;10.530;2023-09-08T07:40:21;23.10;5.00
10245;DHT22;5167;52.164;10.530;2023-09-08T07:42:47;23.20;5.00
10245;DHT22;5167;52.164;10.530;2023-09-08T07:45:12;23.30;5.00
10245;DHT22;5167;52.164;10.530;2023-09-08T07:47:38;23.40;5.00
10245;DHT22;5167;52.164;10.530;2023-09-08T07:50:24;23.70;5.00
10245;DHT22;5167;52.164;10.530;2023-09-08T07:52:51;23.80;5.00
10245;DHT22;5167;52.164;10.530;2023-09-08T07:55:17;23.80;5.00
10245;DHT22;5167;52.164;10.530;2023-09-08T07:57:44;23.90;5.00
10245;DHT22;5167;52.164;10.530;2023-09-08T08:00:12;24.00;5.00
10245;DHT22;5167;52.164;10.530;2023-09-08T08:02:48;24.20;5.00
10245;DHT22;5167;52.164;10.530;2023-09-08T08:05:14;24.20;5.00
10245;DHT22;5167;52.164;10.530;2023-09-08T08:07:41;24.40;5.00
10245;DHT22;5167;52.164;10.530;2023-09-08T08:10:07;24.50;5.00
10245;DHT22;5167;52.164;10.530;2023-09-08T08:12:33;24.60;5.00
10245;DHT22;5167;52.164;10.530;2023-09-08T08:14:58;24.70;5.00
10245;DHT22;5167;52.164;10.530;2023-09-08T08:17:24;24.80;5.00
10245;DHT22;5167;52.164;10.530;2023-09-08T08:19:51;24.90;5.00
10245;DHT22;5167;52.164;10.530;2023-09-08T08:22:17;25.00;5.00
10245;DHT22;5167;52.164;10.530;2023-09-08T08:24:43;25.10;5.00
10245;DHT22;5167;52.164;10.530;2023-09-08T08:27:09;25.30;5.00
10245;DHT22;5167;52.164;10.530;2023-09-08T08:29:34;25.30;5.00
10245;DHT22;5167;52.164;10.530;2023-09-08T08:32:00;25.50;5.00
10245;DHT22;5167;52.164;10.530;2023-09-08T08:34:25;25.60;5.00
10245;DHT22;5167;52.164;10.530;2023-09-08T08:36:51;25.70;5.00
10245;DHT22;5167;52.164;10.530;2023-09-08T08:39:16;25.90;5.00
10245;DHT22;5167;52.164;10.530;2023-09-08T08:41:42;26.00;5.00
10245;DHT22;5167;52.164;10.530;2023-09-08T08:44:08;26.00;5.00
10245;DHT22;5167;52.164;10.530;2023-09-08T08:46:37;26.10;5.00
10245;DHT22;5167;52.164;10.530;2023-09-08T08:49:04;26.30;5.00
10245;DHT22;5167;52.164;10.530;2023-09-08T08:51:33;26.50;5.00
10245;DHT22;5167;52.164;10.530;2023-09-08T08:54:00;26.60;5.00
10245;DHT22;5167;52.164;10.530;2023-09-08T08:56:30;26.80;5.00
10245;DHT22;5167;52.164;10.530;2023-09-08T08:58:57;26.90;5.00
10245;DHT22;5167;52.164;10.530;2023-09-08T09:01:24;27.10;5.00
10245;DHT22;5167;52.164;10.530;2023-09-08T09:03:51;27.30;5.00
10245;DHT22;5167;52.164;10.530;2023-09-08T09:06:17;27.40;5.00
10245;DHT22;5167;52.164;10.530;2023-09-08T09:08:44;27.70;5.00
10245;DHT22;5167;52.164;10.530;2023-09-08T09:11:10;27.80;5.00
10245;DHT22;5167;52.164;10.530;2023-09-08T09:13:36;27.90;5.00
10245;DHT22;5167;52.164;10.530;2023-09-08T09:16:03;28.10;5.00
10245;DHT22;5167;52.164;10.530;2023-09-08T09:18:29;28.30;5.00
10245;DHT22;5167;52.164;10.530;2023-09-08T09:20:57;28.40;5.00
10245;DHT22;5167;52.164;10.530;2023-09-08T09:23:33;28.50;5.00
10245;DHT22;5167;52.164;10.530;2023-09-08T09:26:01;28.70;5.00
10245;DHT22;5167;52.164;10.530;2023-09-08T09:28:28;28.90;5.00
10245;DHT22;5167;52.164;10.530;2023-09-08T09:30:54;29.00;5.00
10245;DHT22;5167;52.164;10.530;2023-09-08T09:33:20;29.10;5.00
10245;DHT22;5167;52.164;10.530;2023-09-08T09:35:53;29.30;5.00
10245;DHT22;5167;52.164;10.530;2023-09-08T09:38:20;29.40;5.00
10245;DHT22;5167;52.164;10.530;2023-09-08T09:40:46;29.60;5.00
10245;DHT22;5167;52.164;10.530;2023-09-08T09:43:13;29.70;5.00
10245;DHT22;5167;52.164;10.530;2023-09-08T09:45:40;29.80;5.00
10245;DHT22;5167;52.164;10.530;2023-09-08T09:48:07;29.90;5.00
10245;DHT22;5167;52.164;10.530;2023-09-08T09:50:35;30.00;5.00
10245;DHT22;5167;52.164;10.530;2023-09-08T09:53:09;30.10;5.00
10245;DHT22;5167;52.164;10.530;2023-09-08T09:55:36;30.30;5.00
10245;DHT22;5167;52.164;10.530;2023-09-08T09:58:04;30.40;5.00
10245;DHT22;5167;52.164;10.530;2023-09-08T10:00:30;30.50;5.00
10245;DHT22;5167;52.164;10.530;2023-09-08T10:02:58;30.60;5.00
10245;DHT22;5167;52.164;10.530;2023-09-08T10:05:24;30.70;5.00
10245;DHT22;5167;52.164;10.530;2023-09-08T10:07:51;30.70;5.00
10245;DHT22;5167;52.164;10.530;2023-09-08T10:10:17;30.80;5.00
10245;DHT22;5167;52.164;10.530;2023-09-08T10:12:44;30.90;5.00
10245;DHT22;5167;52.164;10.530;2023-09-08T10:15:13;30.90;5.00
10245;DHT22;5167;52.164;10.530;2023-09-08T10:17:44;30.90;5.00
10245;DHT22;5167;52.164;10.530;2023-09-08T10:20:11;31.00;5.00
10245;DHT22;5167;52.164;10.530;2023-09-08T10:22:42;31.00;5.00
10245;DHT22;5167;52.164;10.530;2023-09-08T10:25:08;31.10;5.00
10245;DHT22;5167;52.164;10.530;2023-09-08T10:27:35;31.10;5.00
10245;DHT22;5167;52.164;10.530;2023-09-08T10:30:03;31.20;5.00
10245;DHT22;5167;52.164;10.530;2023-09-08T10:32:33;31.30;5.00
10245;DHT22;5167;52.164;10.530;2023-09-08T10:35:01;31.20;5.00
10245;DHT22;5167;52.164;10.530;2023-09-08T10:37:28;31.30;5.00
10245;DHT22;5167;52.164;10.530;2023-09-08T10:39:55;31.40;5.00
10245;DHT22;5167;52.164;10.530;2023-09-08T10:42:25;31.50;5.00
10245;DHT22;5167;52.164;10.530;2023-09-08T10:44:59;31.50;5.00
10245;DHT22;5167;52.164;10.530;2023-09-08T10:47:39;31.50;5.00
10245;DHT22;5167;52.164;10.530;2023-09-08T10:50:07;31.60;5.00
10245;DHT22;5167;52.164;10.530;2023-09-08T10:52:34;31.60;5.00
10245;DHT22;5167;52.164;10.530;2023-09-08T10:55:01;31.60;5.00
10245;DHT22;5167;52.164;10.530;2023-09-08T10:57:27;31.70;5.00
10245;DHT22;5167;52.164;10.530;2023-09-08T11:04:58;31.90;5.00
10245;DHT22;5167;52.164;10.530;2023-09-08T11:07:25;31.90;5.00
10245;DHT22;5167;52.164;10.530;2023-09-08T11:09:50;32.00;5.00
10245;DHT22;5167;52.164;10.530;2023-09-08T11:12:16;32.00;5.00
10245;DHT22;5167;52.164;10.530;2023-09-08T11:14:43;32.00;5.00
10245;DHT22;5167;52.164;10.530;2023-09-08T11:17:09;32.10;5.00
10245;DHT22;5167;52.164;10.530;2023-09-08T11:19:48;32.10;5.00
10245;DHT22;5167;52.164;10.530;2023-09-08T11:22:15;32.20;5.00
10245;DHT22;5167;52.164;10.530;2023-09-08T11:24:42;32.10;5.00
10245;DHT22;5167;52.164;10.530;2023-09-08T11:27:08;32.00;5.00
10245;DHT22;5167;52.164;10.530;2023-09-08T11:29:34;32.10;5.00
10245;DHT22;5167;52.164;10.530;2023-09-08T11:31:59;32.10;5.00
10245;DHT22;5167;52.164;10.530;2023-09-08T11:34:25;32.10;5.00
10245;DHT22;5167;52.164;10.530;2023-09-08T11:36:51;32.00;5.00
10245;DHT22;5167;52.164;10.530;2023-09-08T11:39:18;32.10;5.00
10245;DHT22;5167;52.164;10.530;2023-09-08T11:41:44;32.10;5.00
10245;DHT22;5167;52.164;10.530;2023-09-08T11:44:15;32.10;5.00
10245;DHT22;5167;52.164;10.530;2023-09-08T11:46:41;32.00;5.00
10245;DHT22;5167;52.164;10.530;2023-09-08T11:49:07;32.00;5.00
10245;DHT22;5167;52.164;10.530;2023-09-08T11:51:32;32.00;5.00
10245;DHT22;5167;52.164;10.530;2023-09-08T11:53:58;32.00;5.00
10245;DHT22;5167;52.164;10.530;2023-09-08T11:56:25;32.00;5.00
10245;DHT22;5167;52.164;10.530;2023-09-08T11:58:51;31.90;5.00
10245;DHT22;5167;52.164;10.530;2023-09-08T12:01:17;31.80;5.00
10245;DHT22;5167;52.164;10.530;2023-09-08T12:03:53;31.90;5.00
10245;DHT22;5167;52.164;10.530;2023-09-08T12:06:19;31.90;5.00
10245;DHT22;5167;52.164;10.530;2023-09-08T12:08:45;31.90;5.00
10245;DHT22;5167;52.164;10.530;2023-09-08T12:11:11;31.80;5.00
10245;DHT22;5167;52.164;10.530;2023-09-08T12:13:37;31.80;5.00
10245;DHT22;5167;52.164;10.530;2023-09-08T12:16:17;31.80;5.00
10245;DHT22;5167;52.164;10.530;2023-09-08T12:18:43;31.70;5.00
10245;DHT22;5167;52.164;10.530;2023-09-08T12:21:10;31.60;5.00
10245;DHT22;5167;52.164;10.530;2023-09-08T12:23:47;31.60;5.00
10245;DHT22;5167;52.164;10.530;2023-09-08T12:26:14;31.60;5.00
10245;DHT22;5167;52.164;10.530;2023-09-08T12:28:39;31.50;5.00
10245;DHT22;5167;52.164;10.530;2023-09-08T12:31:05;31.50;5.00
10245;DHT22;5167;52.164;10.530;2023-09-08T12:33:30;31.40;5.00
10245;DHT22;5167;52.164;10.530;2023-09-08T12:35:56;31.40;5.00
10245;DHT22;5167;52.164;10.530;2023-09-08T12:38:21;31.40;5.00
10245;DHT22;5167;52.164;10.530;2023-09-08T12:40:48;31.40;5.00
10245;DHT22;5167;52.164;10.530;2023-09-08T12:43:14;31.50;5.00
10245;DHT22;5167;52.164;10.530;2023-09-08T12:45:39;31.30;5.00
10245;DHT22;5167;52.164;10.530;2023-09-08T12:48:05;31.30;5.00
10245;DHT22;5167;52.164;10.530;2023-09-08T12:50:32;31.20;5.00
10245;DHT22;5167;52.164;10.530;2023-09-08T12:52:57;31.30;5.00
10245;DHT22;5167;52.164;10.530;2023-09-08T12:55:23;31.20;5.00
10245;DHT22;5167;52.164;10.530;2023-09-08T12:57:50;31.20;5.00
10245;DHT22;5167;52.164;10.530;2023-09-08T13:00:17;31.20;5.00
10245;DHT22;5167;52.164;10.530;2023-09-08T13:02:44;31.20;5.00
10245;DHT22;5167;52.164;10.530;2023-09-08T13:05:09;31.20;5.00
10245;DHT22;5167;52.164;10.530;2023-09-08T13:07:35;31.20;5.00
10245;DHT22;5167;52.164;10.530;2023-09-08T13:10:00;31.20;5.00
10245;DHT22;5167;52.164;10.530;2023-09-08T13:12:26;31.30;5.00
10245;DHT22;5167;52.164;10.530;2023-09-08T13:14:52;31.20;5.00
10245;DHT22;5167;52.164;10.530;2023-09-08T13:17:17;31.30;5.00
10245;DHT22;5167;52.164;10.530;2023-09-08T13:19:44;31.30;5.00
10245;DHT22;5167;52.164;10.530;2023-09-08T13:22:10;31.30;5.00
10245;DHT22;5167;52.164;10.530;2023-09-08T13:24:36;31.30;5.00
10245;DHT22;5167;52.164;10.530;2023-09-08T13:27:02;31.30;5.00
10245;DHT22;5167;52.164;10.530;2023-09-08T13:29:28;31.20;5.00
10245;DHT22;5167;52.164;10.530;2023-09-08T13:31:54;31.40;5.00
10245;DHT22;5167;52.164;10.530;2023-09-08T13:34:20;31.40;5.00
10245;DHT22;5167;52.164;10.530;2023-09-08T13:36:46;31.20;5.00
10245;DHT22;5167;52.164;10.530;2023-09-08T13:39:12;31.20;5.00
10245;DHT22;5167;52.164;10.530;2023-09-08T13:41:50;31.10;5.00
10245;DHT22;5167;52.164;10.530;2023-09-08T13:44:17;31.20;5.00
10245;DHT22;5167;52.164;10.530;2023-09-08T13:46:43;31.20;5.00
10245;DHT22;5167;52.164;10.530;2023-09-08T13:49:09;31.20;5.00
10245;DHT22;5167;52.164;10.530;2023-09-08T13:51:34;31.10;5.00
10245;DHT22;5167;52.164;10.530;2023-09-08T13:54:00;31.20;5.00
10245;DHT22;5167;52.164;10.530;2023-09-08T13:56:25;31.20;5.00
10245;DHT22;5167;52.164;10.530;2023-09-08T13:58:51;31.10;5.00
10245;DHT22;5167;52.164;10.530;2023-09-08T14:01:17;31.20;5.00
10245;DHT22;5167;52.164;10.530;2023-09-08T14:03:43;31.10;5.00
10245;DHT22;5167;52.164;10.530;2023-09-08T14:06:08;31.10;5.00
10245;DHT22;5167;52.164;10.530;2023-09-08T14:08:34;31.10;5.00
10245;DHT22;5167;52.164;10.530;2023-09-08T14:10:59;31.10;5.00
10245;DHT22;5167;52.164;10.530;2023-09-08T14:13:25;31.10;5.00
10245;DHT22;5167;52.164;10.530;2023-09-08T14:15:50;31.10;5.00
10245;DHT22;5167;52.164;10.530;2023-09-08T14:18:16;31.10;5.00
10245;DHT22;5167;52.164;10.530;2023-09-08T14:20:42;31.10;5.00
10245;DHT22;5167;52.164;10.530;2023-09-08T14:23:08;31.10;5.00
10245;DHT22;5167;52.164;10.530;2023-09-08T14:25:34;31.00;5.00
10245;DHT22;5167;52.164;10.530;2023-09-08T14:28:00;31.00;5.00
10245;DHT22;5167;52.164;10.530;2023-09-08T14:30:28;31.10;5.00
10245;DHT22;5167;52.164;10.530;2023-09-08T14:32:54;31.10;5.00
10245;DHT22;5167;52.164;10.530;2023-09-08T14:35:19;31.00;5.00
10245;DHT22;5167;52.164;10.530;2023-09-08T14:37:47;31.00;5.00
10245;DHT22;5167;52.164;10.530;2023-09-08T14:40:13;31.00;5.00
10245;DHT22;5167;52.164;10.530;2023-09-08T14:42:38;31.10;5.00
10245;DHT22;5167;52.164;10.530;2023-09-08T14:45:04;31.10;5.00
10245;DHT22;5167;52.164;10.530;2023-09-08T14:47:30;31.00;5.00
10245;DHT22;5167;52.164;10.530;2023-09-08T14:49:55;31.10;5.00
10245;DHT22;5167;52.164;10.530;2023-09-08T14:52:22;31.00;5.00
10245;DHT22;5167;52.164;10.530;2023-09-08T14:54:47;31.10;5.00
10245;DHT22;5167;52.164;10.530;2023-09-08T14:57:13;31.00;5.00
10245;DHT22;5167;52.164;10.530;2023-09-08T14:59:38;31.10;5.00
10245;DHT22;5167;52.164;10.530;2023-09-08T15:02:04;31.10;5.00
10245;DHT22;5167;52.164;10.530;2023-09-08T15:04:29;31.10;5.00
10245;DHT22;5167;52.164;10.530;2023-09-08T15:06:55;31.10;5.00
10245;DHT22;5167;52.164;10.530;2023-09-08T15:09:20;31.10;5.00
10245;DHT22;5167;52.164;10.530;2023-09-08T15:11:47;31.10;5.00
10245;DHT22;5167;52.164;10.530;2023-09-08T15:14:12;31.10;5.00
10245;DHT22;5167;52.164;10.530;2023-09-08T15:16:38;31.10;5.00
10245;DHT22;5167;52.164;10.530;2023-09-08T15:19:03;31.00;5.00
10245;DHT22;5167;52.164;10.530;2023-09-08T15:21:29;31.00;5.00
10245;DHT22;5167;52.164;10.530;2023-09-08T15:23:56;31.00;5.00
10245;DHT22;5167;52.164;10.530;2023-09-08T15:26:21;31.00;5.00
10245;DHT22;5167;52.164;10.530;2023-09-08T15:28:47;31.00;5.00
10245;DHT22;5167;52.164;10.530;2023-09-08T15:31:16;31.00;5.00
10245;DHT22;5167;52.164;10.530;2023-09-08T15:33:41;31.00;5.00
10245;DHT22;5167;52.164;10.530;2023-09-08T15:36:07;31.00;5.00
10245;DHT22;5167;52.164;10.530;2023-09-08T15:38:32;30.90;5.00
10245;DHT22;5167;52.164;10.530;2023-09-08T15:43:39;30.90;5.00
10245;DHT22;5167;52.164;10.530;2023-09-08T15:46:06;30.90;5.00
10245;DHT22;5167;52.164;10.530;2023-09-08T15:48:33;30.90;5.00